sensor_id;sensor_type;location;lat;lon;timestamp;temperature;humidity
66728;DHT22;53641;44.274;19.890;2023-04-15T00:01:34;9.30;99.90
66728;DHT22;53641;44.274;19.890;2023-04-15T00:04:01;9.30;99.90
66728;DHT22;53641;44.274;19.890;2023-04-15T00:06:27;9.30;99.90
66728;DHT22;53641;44.274;19.890;2023-04-15T00:08:52;9.30;99.90
66728;DHT22;53641;44.274;19.890;2023-04-15T00:11:18;9.30;99.90
66728;DHT22;53641;44.274;19.890;2023-04-15T00:13:44;9.30;99.90
66728;DHT22;53641;44.274;19.890;2023-04-15T00:16:10;9.20;99.90
66728;DHT22;53641;44.274;19.890;2023-04-15T00:18:36;9.30;99.90
66728;DHT22;53641;44.274;19.890;2023-04-15T00:21:03;9.20;99.90
66728;DHT22;53641;44.274;19.890;2023-04-15T00:23:29;9.20;99.90
66728;DHT22;53641;44.274;19.890;2023-04-15T00:25:55;9.20;99.90
66728;DHT22;53641;44.274;19.890;2023-04-15T00:28:20;9.10;99.90
66728;DHT22;53641;44.274;19.890;2023-04-15T00:30:46;9.10;99.90
66728;DHT22;53641;44.274;19.890;2023-04-15T00:33:12;9.10;99.90
66728;DHT22;53641;44.274;19.890;2023-04-15T00:35:38;9.10;99.90
66728;DHT22;53641;44.274;19.890;2023-04-15T00:38:04;9.00;99.90
66728;DHT22;53641;44.274;19.890;2023-04-15T00:40:31;9.10;99.90
66728;DHT22;53641;44.274;19.890;2023-04-15T00:42:57;9.10;99.90
66728;DHT22;53641;44.274;19.890;2023-04-15T00:45:24;9.00;99.90
66728;DHT22;53641;44.274;19.890;2023-04-15T00:47:50;9.10;99.90
66728;DHT22;53641;44.274;19.890;2023-04-15T00:50:16;9.20;99.90
66728;DHT22;53641;44.274;19.890;2023-04-15T00:52:42;9.30;99.90
66728;DHT22;53641;44.274;19.890;2023-04-15T00:55:08;9.20;99.90
66728;DHT22;53641;44.274;19.890;2023-04-15T00:57:34;9.20;99.90
66728;DHT22;53641;44.274;19.890;2023-04-15T01:00:00;9.30;99.90
66728;DHT22;53641;44.274;19.890;2023-04-15T01:02:26;9.30;99.90
66728;DHT22;53641;44.274;19.890;2023-04-15T01:04:52;9.30;99.90
66728;DHT22;53641;44.274;19.890;2023-04-15T01:07:18;9.30;99.90
66728;DHT22;53641;44.274;19.890;2023-04-15T01:09:43;9.30;99.90
66728;DHT22;53641;44.274;19.890;2023-04-15T01:12:11;9.30;99.90
66728;DHT22;53641;44.274;19.890;2023-04-15T01:14:37;9.40;99.90
66728;DHT22;53641;44.274;19.890;2023-04-15T01:17:03;9.30;99.90
66728;DHT22;53641;44.274;19.890;2023-04-15T01:19:28;9.20;99.90
66728;DHT22;53641;44.274;19.890;2023-04-15T01:21:55;9.20;99.90
66728;DHT22;53641;44.274;19.890;2023-04-15T01:24:20;9.20;99.90
66728;DHT22;53641;44.274;19.890;2023-04-15T01:26:47;9.20;99.90
66728;DHT22;53641;44.274;19.890;2023-04-15T01:29:14;9.10;99.90
66728;DHT22;53641;44.274;19.890;2023-04-15T01:31:39;9.00;99.90
66728;DHT22;53641;44.274;19.890;2023-04-15T01:34:05;9.00;99.90
66728;DHT22;53641;44.274;19.890;2023-04-15T01:36:31;8.90;99.90
66728;DHT22;53641;44.274;19.890;2023-04-15T01:38:57;8.90;99.90
66728;DHT22;53641;44.274;19.890;2023-04-15T01:41:26;8.90;99.90
66728;DHT22;53641;44.274;19.890;2023-04-15T01:43:52;8.90;99.90
66728;DHT22;53641;44.274;19.890;2023-04-15T01:46:18;8.80;99.90
66728;DHT22;53641;44.274;19.890;2023-04-15T01:48:43;8.80;99.90
66728;DHT22;53641;44.274;19.890;2023-04-15T01:51:09;8.80;99.90
66728;DHT22;53641;44.274;19.890;2023-04-15T01:53:35;8.70;99.90
66728;DHT22;53641;44.274;19.890;2023-04-15T01:56:01;8.80;99.90
66728;DHT22;53641;44.274;19.890;2023-04-15T01:58:27;8.80;99.90
66728;DHT22;53641;44.274;19.890;2023-04-15T02:00:53;8.70;99.90
66728;DHT22;53641;44.274;19.890;2023-04-15T02:03:18;8.80;99.90
66728;DHT22;53641;44.274;19.890;2023-04-15T02:05:44;8.90;99.90
66728;DHT22;53641;44.274;19.890;2023-04-15T02:08:10;8.80;99.90
66728;DHT22;53641;44.274;19.890;2023-04-15T02:10:36;8.70;99.90
66728;DHT22;53641;44.274;19.890;2023-04-15T02:13:02;8.80;99.90
66728;DHT22;53641;44.274;19.890;2023-04-15T02:15:27;8.90;99.90
66728;DHT22;53641;44.274;19.890;2023-04-15T02:17:53;9.00;99.90
66728;DHT22;53641;44.274;19.890;2023-04-15T02:20:19;9.00;99.90
66728;DHT22;53641;44.274;19.890;2023-04-15T02:22:45;9.00;99.90
66728;DHT22;53641;44.274;19.890;2023-04-15T02:25:12;9.00;99.90
66728;DHT22;53641;44.274;19.890;2023-04-15T02:27:38;9.00;99.90
66728;DHT22;53641;44.274;19.890;2023-04-15T02:30:04;9.00;99.90
66728;DHT22;53641;44.274;19.890;2023-04-15T02:32:31;9.00;99.90
66728;DHT22;53641;44.274;19.890;2023-04-15T02:35:07;8.90;99.90
66728;DHT22;53641;44.274;19.890;2023-04-15T02:37:34;8.90;99.90
66728;DHT22;53641;44.274;19.890;2023-04-15T02:40:06;8.80;99.90
66728;DHT22;53641;44.274;19.890;2023-04-15T02:42:32;8.90;99.90
66728;DHT22;53641;44.274;19.890;2023-04-15T02:44:58;8.90;99.90
66728;DHT22;53641;44.274;19.890;2023-04-15T02:47:24;8.90;99.90
66728;DHT22;53641;44.274;19.890;2023-04-15T02:49:49;8.90;99.90
66728;DHT22;53641;44.274;19.890;2023-04-15T02:52:15;8.90;99.90
66728;DHT22;53641;44.274;19.890;2023-04-15T02:54:41;8.80;99.90
66728;DHT22;53641;44.274;19.890;2023-04-15T02:57:06;8.90;99.90
66728;DHT22;53641;44.274;19.890;2023-04-15T02:59:32;8.80;99.90
66728;DHT22;53641;44.274;19.890;2023-04-15T03:01:58;8.80;99.90
66728;DHT22;53641;44.274;19.890;2023-04-15T03:04:25;8.80;99.90
66728;DHT22;53641;44.274;19.890;2023-04-15T03:06:51;8.90;99.90
66728;DHT22;53641;44.274;19.890;2023-04-15T03:09:16;8.80;99.90
66728;DHT22;53641;44.274;19.890;2023-04-15T03:11:42;8.80;99.90
66728;DHT22;53641;44.274;19.890;2023-04-15T03:14:08;8.80;99.90
66728;DHT22;53641;44.274;19.890;2023-04-15T03:16:33;8.80;99.90
66728;DHT22;53641;44.274;19.890;2023-04-15T03:18:59;8.80;99.90
66728;DHT22;53641;44.274;19.890;2023-04-15T03:21:25;8.80;99.90
66728;DHT22;53641;44.274;19.890;2023-04-15T03:23:51;8.70;99.90
66728;DHT22;53641;44.274;19.890;2023-04-15T03:26:26;8.60;99.90
66728;DHT22;53641;44.274;19.890;2023-04-15T03:28:53;8.60;99.90
66728;DHT22;53641;44.274;19.890;2023-04-15T03:31:19;8.50;99.90
66728;DHT22;53641;44.274;19.890;2023-04-15T03:33:44;8.70;99.90
66728;DHT22;53641;44.274;19.890;2023-04-15T03:36:10;8.70;99.90
66728;DHT22;53641;44.274;19.890;2023-04-15T03:38:36;8.80;99.90
66728;DHT22;53641;44.274;19.890;2023-04-15T03:41:01;8.70;99.90
66728;DHT22;53641;44.274;19.890;2023-04-15T03:43:27;8.70;99.90
66728;DHT22;53641;44.274;19.890;2023-04-15T03:45:53;8.80;99.90
66728;DHT22;53641;44.274;19.890;2023-04-15T03:48:18;8.80;99.90
66728;DHT22;53641;44.274;19.890;2023-04-15T03:50:44;8.80;99.90
66728;DHT22;53641;44.274;19.890;2023-04-15T03:53:10;8.80;99.90
66728;DHT22;53641;44.274;19.890;2023-04-15T03:55:36;8.90;99.90
66728;DHT22;53641;44.274;19.890;2023-04-15T03:58:02;8.90;99.90
66728;DHT22;53641;44.274;19.890;2023-04-15T04:00:27;8.90;99.90
66728;DHT22;53641;44.274;19.890;2023-04-15T04:02:53;9.00;99.90
66728;DHT22;53641;44.274;19.890;2023-04-15T04:05:19;9.00;99.90
66728;DHT22;53641;44.274;19.890;2023-04-15T04:07:45;9.00;99.90
66728;DHT22;53641;44.274;19.890;2023-04-15T04:10:10;9.00;99.90
66728;DHT22;53641;44.274;19.890;2023-04-15T04:12:36;9.10;99.90
66728;DHT22;53641;44.274;19.890;2023-04-15T04:15:04;9.10;99.90
66728;DHT22;53641;44.274;19.890;2023-04-15T04:17:31;9.20;99.90
66728;DHT22;53641;44.274;19.890;2023-04-15T04:19:56;9.20;99.90
66728;DHT22;53641;44.274;19.890;2023-04-15T04:22:22;9.20;99.90
66728;DHT22;53641;44.274;19.890;2023-04-15T04:24:48;9.20;99.90
66728;DHT22;53641;44.274;19.890;2023-04-15T04:27:14;9.20;99.90
66728;DHT22;53641;44.274;19.890;2023-04-15T04:29:40;9.20;99.90
66728;DHT22;53641;44.274;19.890;2023-04-15T04:32:06;9.20;99.90
66728;DHT22;53641;44.274;19.890;2023-04-15T04:34:31;9.30;99.90
66728;DHT22;53641;44.274;19.890;2023-04-15T04:36:57;9.40;99.90
66728;DHT22;53641;44.274;19.890;2023-04-15T04:39:23;9.40;99.90
66728;DHT22;53641;44.274;19.890;2023-04-15T04:41:48;9.50;99.90
66728;DHT22;53641;44.274;19.890;2023-04-15T04:44:16;9.60;99.90
66728;DHT22;53641;44.274;19.890;2023-04-15T04:46:42;9.60;99.90
66728;DHT22;53641;44.274;19.890;2023-04-15T04:49:07;9.70;99.90
66728;DHT22;53641;44.274;19.890;2023-04-15T04:51:33;9.80;99.90
66728;DHT22;53641;44.274;19.890;2023-04-15T04:53:59;9.90;99.90
66728;DHT22;53641;44.274;19.890;2023-04-15T04:56:24;10.00;99.90
66728;DHT22;53641;44.274;19.890;2023-04-15T04:58:50;10.10;99.90
66728;DHT22;53641;44.274;19.890;2023-04-15T05:01:19;10.20;99.90
66728;DHT22;53641;44.274;19.890;2023-04-15T05:03:45;10.30;99.90
66728;DHT22;53641;44.274;19.890;2023-04-15T05:06:10;10.30;99.90
66728;DHT22;53641;44.274;19.890;2023-04-15T05:08:36;10.30;99.90
66728;DHT22;53641;44.274;19.890;2023-04-15T05:11:02;10.40;99.90
66728;DHT22;53641;44.274;19.890;2023-04-15T05:13:28;10.30;99.90
66728;DHT22;53641;44.274;19.890;2023-04-15T05:15:54;10.50;99.90
66728;DHT22;53641;44.274;19.890;2023-04-15T05:18:20;10.60;99.90
66728;DHT22;53641;44.274;19.890;2023-04-15T05:20:46;10.80;99.90
66728;DHT22;53641;44.274;19.890;2023-04-15T05:23:11;10.90;99.90
66728;DHT22;53641;44.274;19.890;2023-04-15T05:25:37;10.90;99.90
66728;DHT22;53641;44.274;19.890;2023-04-15T05:28:03;10.70;99.90
66728;DHT22;53641;44.274;19.890;2023-04-15T05:30:28;10.90;99.90
66728;DHT22;53641;44.274;19.890;2023-04-15T05:32:54;10.90;99.60
66728;DHT22;53641;44.274;19.890;2023-04-15T05:35:20;10.80;99.90
66728;DHT22;53641;44.274;19.890;2023-04-15T05:37:46;10.80;99.90
66728;DHT22;53641;44.274;19.890;2023-04-15T05:40:11;10.90;99.90
66728;DHT22;53641;44.274;19.890;2023-04-15T05:42:37;11.00;99.90
66728;DHT22;53641;44.274;19.890;2023-04-15T05:45:03;11.10;99.90
66728;DHT22;53641;44.274;19.890;2023-04-15T05:47:33;11.30;99.90
66728;DHT22;53641;44.274;19.890;2023-04-15T05:49:59;12.20;99.20
66728;DHT22;53641;44.274;19.890;2023-04-15T05:52:25;12.30;97.80
66728;DHT22;53641;44.274;19.890;2023-04-15T05:54:50;12.70;96.40
66728;DHT22;53641;44.274;19.890;2023-04-15T05:57:16;12.90;96.20
66728;DHT22;53641;44.274;19.890;2023-04-15T05:59:42;13.20;96.10
66728;DHT22;53641;44.274;19.890;2023-04-15T06:02:09;13.60;94.80
66728;DHT22;53641;44.274;19.890;2023-04-15T06:04:34;14.70;91.50
66728;DHT22;53641;44.274;19.890;2023-04-15T06:07:01;15.40;87.90
66728;DHT22;53641;44.274;19.890;2023-04-15T06:09:26;15.90;88.10
66728;DHT22;53641;44.274;19.890;2023-04-15T06:11:53;16.00;85.60
66728;DHT22;53641;44.274;19.890;2023-04-15T06:14:19;15.60;84.30
66728;DHT22;53641;44.274;19.890;2023-04-15T06:16:44;15.80;83.90
66728;DHT22;53641;44.274;19.890;2023-04-15T06:19:10;16.10;83.50
66728;DHT22;53641;44.274;19.890;2023-04-15T06:21:36;16.80;79.90
66728;DHT22;53641;44.274;19.890;2023-04-15T06:24:02;17.90;76.80
66728;DHT22;53641;44.274;19.890;2023-04-15T06:26:28;18.40;74.40
66728;DHT22;53641;44.274;19.890;2023-04-15T06:28:56;19.80;73.80
66728;DHT22;53641;44.274;19.890;2023-04-15T06:31:22;20.20;70.30
66728;DHT22;53641;44.274;19.890;2023-04-15T06:33:48;20.30;67.10
66728;DHT22;53641;44.274;19.890;2023-04-15T06:36:13;20.50;66.30
66728;DHT22;53641;44.274;19.890;2023-04-15T06:38:39;21.50;67.10
66728;DHT22;53641;44.274;19.890;2023-04-15T06:41:05;23.00;63.10
66728;DHT22;53641;44.274;19.890;2023-04-15T06:43:31;24.20;61.10
66728;DHT22;53641;44.274;19.890;2023-04-15T06:45:57;24.90;59.20
66728;DHT22;53641;44.274;19.890;2023-04-15T06:48:23;25.50;57.90
66728;DHT22;53641;44.274;19.890;2023-04-15T06:50:48;26.40;56.20
66728;DHT22;53641;44.274;19.890;2023-04-15T06:53:14;27.00;55.30
66728;DHT22;53641;44.274;19.890;2023-04-15T06:55:40;28.30;54.40
66728;DHT22;53641;44.274;19.890;2023-04-15T06:58:06;28.90;53.40
66728;DHT22;53641;44.274;19.890;2023-04-15T15:27:35;18.90;59.90
66728;DHT22;53641;44.274;19.890;2023-04-15T15:30:02;18.90;60.60
66728;DHT22;53641;44.274;19.890;2023-04-15T15:32:27;19.00;61.20
66728;DHT22;53641;44.274;19.890;2023-04-15T15:34:53;19.00;60.90
66728;DHT22;53641;44.274;19.890;2023-04-15T15:37:19;18.90;60.60
66728;DHT22;53641;44.274;19.890;2023-04-15T15:39:45;18.80;61.50
66728;DHT22;53641;44.274;19.890;2023-04-15T15:42:11;18.50;63.50
66728;DHT22;53641;44.274;19.890;2023-04-15T15:44:36;18.20;64.50
66728;DHT22;53641;44.274;19.890;2023-04-15T15:47:03;18.00;65.50
66728;DHT22;53641;44.274;19.890;2023-04-15T15:49:29;18.10;66.10
66728;DHT22;53641;44.274;19.890;2023-04-15T15:51:54;18.20;66.40
66728;DHT22;53641;44.274;19.890;2023-04-15T15:54:20;18.20;66.50
66728;DHT22;53641;44.274;19.890;2023-04-15T15:56:46;18.30;66.60
66728;DHT22;53641;44.274;19.890;2023-04-15T15:59:11;18.20;67.20
66728;DHT22;53641;44.274;19.890;2023-04-15T16:01:37;18.10;67.60
66728;DHT22;53641;44.274;19.890;2023-04-15T16:04:03;18.20;67.80
66728;DHT22;53641;44.274;19.890;2023-04-15T16:06:29;18.20;67.80
66728;DHT22;53641;44.274;19.890;2023-04-15T16:08:56;18.10;68.10
66728;DHT22;53641;44.274;19.890;2023-04-15T16:11:21;18.30;67.90
66728;DHT22;53641;44.274;19.890;2023-04-15T16:13:47;18.20;67.80
66728;DHT22;53641;44.274;19.890;2023-04-15T16:16:13;18.20;68.80
66728;DHT22;53641;44.274;19.890;2023-04-15T16:18:39;18.20;68.80
66728;DHT22;53641;44.274;19.890;2023-04-15T16:21:04;18.10;68.10
66728;DHT22;53641;44.274;19.890;2023-04-15T16:23:30;18.00;68.20
66728;DHT22;53641;44.274;19.890;2023-04-15T16:25:56;18.00;68.40
66728;DHT22;53641;44.274;19.890;2023-04-15T16:28:22;17.90;69.10
66728;DHT22;53641;44.274;19.890;2023-04-15T16:30:51;17.90;69.20
66728;DHT22;53641;44.274;19.890;2023-04-15T16:33:17;17.90;68.40
66728;DHT22;53641;44.274;19.890;2023-04-15T16:35:42;17.90;68.80
66728;DHT22;53641;44.274;19.890;2023-04-15T16:38:08;17.90;69.20
66728;DHT22;53641;44.274;19.890;2023-04-15T16:40:34;17.80;69.20
66728;DHT22;53641;44.274;19.890;2023-04-15T16:43:01;17.90;69.50
66728;DHT22;53641;44.274;19.890;2023-04-15T16:45:27;17.80;69.80
66728;DHT22;53641;44.274;19.890;2023-04-15T16:47:53;17.80;69.80
66728;DHT22;53641;44.274;19.890;2023-04-15T16:50:18;17.70;70.40
66728;DHT22;53641;44.274;19.890;2023-04-15T16:52:44;17.80;70.30
66728;DHT22;53641;44.274;19.890;2023-04-15T16:55:10;17.60;70.80
66728;DHT22;53641;44.274;19.890;2023-04-15T16:57:35;17.60;70.10
66728;DHT22;53641;44.274;19.890;2023-04-15T17:00:01;17.40;70.20
66728;DHT22;53641;44.274;19.890;2023-04-15T17:02:29;17.30;70.50
66728;DHT22;53641;44.274;19.890;2023-04-15T17:04:55;17.20;71.00
66728;DHT22;53641;44.274;19.890;2023-04-15T17:07:21;17.10;71.20
66728;DHT22;53641;44.274;19.890;2023-04-15T17:09:47;16.90;71.40
66728;DHT22;53641;44.274;19.890;2023-04-15T17:12:12;16.80;71.60
66728;DHT22;53641;44.274;19.890;2023-04-15T17:14:38;16.60;72.00
66728;DHT22;53641;44.274;19.890;2023-04-15T17:17:04;16.40;72.70
66728;DHT22;53641;44.274;19.890;2023-04-15T17:19:30;16.30;73.50
66728;DHT22;53641;44.274;19.890;2023-04-15T17:21:56;16.30;73.40
66728;DHT22;53641;44.274;19.890;2023-04-15T17:24:22;16.20;73.70
66728;DHT22;53641;44.274;19.890;2023-04-15T17:26:48;16.10;73.80
66728;DHT22;53641;44.274;19.890;2023-04-15T17:29:14;16.00;74.50
66728;DHT22;53641;44.274;19.890;2023-04-15T17:31:39;15.80;76.00
66728;DHT22;53641;44.274;19.890;2023-04-15T17:34:05;15.50;76.30
66728;DHT22;53641;44.274;19.890;2023-04-15T17:36:31;15.50;76.70
66728;DHT22;53641;44.274;19.890;2023-04-15T17:38:57;15.30;77.10
66728;DHT22;53641;44.274;19.890;2023-04-15T17:41:23;15.30;77.50
66728;DHT22;53641;44.274;19.890;2023-04-15T17:43:48;15.30;77.50
66728;DHT22;53641;44.274;19.890;2023-04-15T17:46:14;15.20;77.70
66728;DHT22;53641;44.274;19.890;2023-04-15T17:48:40;15.00;78.40
66728;DHT22;53641;44.274;19.890;2023-04-15T17:51:06;15.00;79.00
66728;DHT22;53641;44.274;19.890;2023-04-15T17:53:31;14.90;79.70
66728;DHT22;53641;44.274;19.890;2023-04-15T17:55:57;15.00;79.80
66728;DHT22;53641;44.274;19.890;2023-04-15T17:58:23;15.10;79.80
66728;DHT22;53641;44.274;19.890;2023-04-15T18:00:50;15.20;79.70
66728;DHT22;53641;44.274;19.890;2023-04-15T18:03:15;15.10;80.30
66728;DHT22;53641;44.274;19.890;2023-04-15T18:05:41;14.90;80.70
66728;DHT22;53641;44.274;19.890;2023-04-15T18:08:07;14.90;81.40
66728;DHT22;53641;44.274;19.890;2023-04-15T18:10:33;15.00;82.70
66728;DHT22;53641;44.274;19.890;2023-04-15T18:12:58;15.10;83.70
66728;DHT22;53641;44.274;19.890;2023-04-15T18:15:24;15.20;82.50
66728;DHT22;53641;44.274;19.890;2023-04-15T18:17:50;15.20;82.40
66728;DHT22;53641;44.274;19.890;2023-04-15T18:20:15;15.20;82.50
66728;DHT22;53641;44.274;19.890;2023-04-15T18:22:41;15.20;83.70
66728;DHT22;53641;44.274;19.890;2023-04-15T18:25:07;15.20;84.80
66728;DHT22;53641;44.274;19.890;2023-04-15T18:27:33;15.20;85.20
66728;DHT22;53641;44.274;19.890;2023-04-15T18:29:59;15.20;83.70
66728;DHT22;53641;44.274;19.890;2023-04-15T18:32:24;15.30;83.90
66728;DHT22;53641;44.274;19.890;2023-04-15T18:34:52;15.30;84.20
66728;DHT22;53641;44.274;19.890;2023-04-15T18:37:19;15.40;84.90
66728;DHT22;53641;44.274;19.890;2023-04-15T18:39:45;15.30;85.60
66728;DHT22;53641;44.274;19.890;2023-04-15T18:42:11;15.30;86.20
66728;DHT22;53641;44.274;19.890;2023-04-15T18:44:36;15.30;86.50
66728;DHT22;53641;44.274;19.890;2023-04-15T18:47:02;15.30;86.70
66728;DHT22;53641;44.274;19.890;2023-04-15T18:49:29;15.30;88.30
66728;DHT22;53641;44.274;19.890;2023-04-15T18:51:54;15.30;87.20
66728;DHT22;53641;44.274;19.890;2023-04-15T18:54:20;15.20;88.10
66728;DHT22;53641;44.274;19.890;2023-04-15T18:56:46;15.10;87.40
66728;DHT22;53641;44.274;19.890;2023-04-15T18:59:11;15.00;89.20
66728;DHT22;53641;44.274;19.890;2023-04-15T19:01:37;14.90;89.60
66728;DHT22;53641;44.274;19.890;2023-04-15T19:04:03;14.80;89.80
66728;DHT22;53641;44.274;19.890;2023-04-15T19:06:28;14.70;90.80
66728;DHT22;53641;44.274;19.890;2023-04-15T19:08:54;14.70;91.60
66728;DHT22;53641;44.274;19.890;2023-04-15T19:11:22;14.50;91.80
66728;DHT22;53641;44.274;19.890;2023-04-15T19:13:47;14.70;92.40
66728;DHT22;53641;44.274;19.890;2023-04-15T19:16:13;14.60;92.70
66728;DHT22;53641;44.274;19.890;2023-04-15T19:18:39;14.60;93.70
66728;DHT22;53641;44.274;19.890;2023-04-15T19:21:05;14.70;93.20
66728;DHT22;53641;44.274;19.890;2023-04-15T19:23:30;14.60;93.50
66728;DHT22;53641;44.274;19.890;2023-04-15T19:25:56;14.50;94.60
66728;DHT22;53641;44.274;19.890;2023-04-15T19:28:23;14.40;95.70
66728;DHT22;53641;44.274;19.890;2023-04-15T19:30:49;14.40;96.00
66728;DHT22;53641;44.274;19.890;2023-04-15T19:33:16;14.50;96.60
66728;DHT22;53641;44.274;19.890;2023-04-15T19:35:42;14.50;96.20
66728;DHT22;53641;44.274;19.890;2023-04-15T19:38:07;14.40;97.10
66728;DHT22;53641;44.274;19.890;2023-04-15T19:40:33;14.40;96.90
66728;DHT22;53641;44.274;19.890;2023-04-15T19:42:59;14.30;96.90
66728;DHT22;53641;44.274;19.890;2023-04-15T19:45:24;14.40;97.40
66728;DHT22;53641;44.274;19.890;2023-04-15T19:47:50;14.30;98.40
66728;DHT22;53641;44.274;19.890;2023-04-15T19:50:17;14.40;97.90
66728;DHT22;53641;44.274;19.890;2023-04-15T19:52:48;14.30;98.20
66728;DHT22;53641;44.274;19.890;2023-04-15T19:55:14;14.30;99.00
66728;DHT22;53641;44.274;19.890;2023-04-15T19:57:40;14.30;98.50
66728;DHT22;53641;44.274;19.890;2023-04-15T20:00:06;14.20;98.80
66728;DHT22;53641;44.274;19.890;2023-04-15T20:02:32;14.20;99.50
66728;DHT22;53641;44.274;19.890;2023-04-15T20:04:58;14.10;99.30
66728;DHT22;53641;44.274;19.890;2023-04-15T20:07:23;14.20;99.50
66728;DHT22;53641;44.274;19.890;2023-04-15T20:09:49;14.10;99.40
66728;DHT22;53641;44.274;19.890;2023-04-15T20:12:16;14.10;99.30
66728;DHT22;53641;44.274;19.890;2023-04-15T20:14:42;14.10;99.50
66728;DHT22;53641;44.274;19.890;2023-04-15T20:17:08;14.20;99.50
66728;DHT22;53641;44.274;19.890;2023-04-15T20:19:33;14.10;99.70
66728;DHT22;53641;44.274;19.890;2023-04-15T20:21:59;14.10;99.70
66728;DHT22;53641;44.274;19.890;2023-04-15T20:24:25;14.10;99.90
66728;DHT22;53641;44.274;19.890;2023-04-15T20:26:50;14.00;99.90
66728;DHT22;53641;44.274;19.890;2023-04-15T20:29:16;14.00;99.90
66728;DHT22;53641;44.274;19.890;2023-04-15T20:31:42;14.00;99.90
66728;DHT22;53641;44.274;19.890;2023-04-15T20:34:08;14.00;99.90
66728;DHT22;53641;44.274;19.890;2023-04-15T20:36:33;13.90;99.90
66728;DHT22;53641;44.274;19.890;2023-04-15T20:38:59;13.90;99.90
66728;DHT22;53641;44.274;19.890;2023-04-15T20:41:25;13.90;99.90
66728;DHT22;53641;44.274;19.890;2023-04-15T20:43:50;13.90;99.90
66728;DHT22;53641;44.274;19.890;2023-04-15T20:46:16;13.90;99.90
66728;DHT22;53641;44.274;19.890;2023-04-15T20:48:42;14.00;99.90
66728;DHT22;53641;44.274;19.890;2023-04-15T20:51:07;13.90;99.90
66728;DHT22;53641;44.274;19.890;2023-04-15T20:53:33;13.90;99.90
66728;DHT22;53641;44.274;19.890;2023-04-15T20:55:59;13.90;99.90
66728;DHT22;53641;44.274;19.890;2023-04-15T20:58:24;13.90;99.90
66728;DHT22;53641;44.274;19.890;2023-04-15T21:00:51;13.80;99.90
66728;DHT22;53641;44.274;19.890;2023-04-15T21:03:17;13.90;99.90
66728;DHT22;53641;44.274;19.890;2023-04-15T21:05:45;13.90;99.90
66728;DHT22;53641;44.274;19.890;2023-04-15T21:08:11;13.70;99.90
66728;DHT22;53641;44.274;19.890;2023-04-15T21:10:37;13.70;99.90
66728;DHT22;53641;44.274;19.890;2023-04-15T21:13:04;13.70;99.90
66728;DHT22;53641;44.274;19.890;2023-04-15T21:15:31;13.70;99.90
66728;DHT22;53641;44.274;19.890;2023-04-15T21:17:56;13.70;99.90
66728;DHT22;53641;44.274;19.890;2023-04-15T21:20:22;13.60;99.90
66728;DHT22;53641;44.274;19.890;2023-04-15T21:22:48;13.50;99.90
66728;DHT22;53641;44.274;19.890;2023-04-15T21:25:13;13.60;99.90
66728;DHT22;53641;44.274;19.890;2023-04-15T21:27:39;13.50;99.90
66728;DHT22;53641;44.274;19.890;2023-04-15T21:30:05;13.50;99.90
66728;DHT22;53641;44.274;19.890;2023-04-15T21:32:31;13.40;99.90
66728;DHT22;53641;44.274;19.890;2023-04-15T21:34:57;13.30;99.90
66728;DHT22;53641;44.274;19.890;2023-04-15T21:37:22;13.30;99.90
66728;DHT22;53641;44.274;19.890;2023-04-15T21:39:48;13.20;99.90
66728;DHT22;53641;44.274;19.890;2023-04-15T21:42:14;13.20;99.90
66728;DHT22;53641;44.274;19.890;2023-04-15T21:44:39;13.20;99.90
66728;DHT22;53641;44.274;19.890;2023-04-15T21:47:05;13.00;99.90
66728;DHT22;53641;44.274;19.890;2023-04-15T21:49:31;12.90;99.90
66728;DHT22;53641;44.274;19.890;2023-04-15T21:51:57;12.80;99.90
66728;DHT22;53641;44.274;19.890;2023-04-15T21:54:28;12.80;99.90
66728;DHT22;53641;44.274;19.890;2023-04-15T21:56:55;12.80;99.90
66728;DHT22;53641;44.274;19.890;2023-04-15T21:59:21;12.70;99.90
66728;DHT22;53641;44.274;19.890;2023-04-15T22:01:47;12.60;99.90
66728;DHT22;53641;44.274;19.890;2023-04-15T22:04:13;12.50;99.90
66728;DHT22;53641;44.274;19.890;2023-04-15T22:06:38;12.50;99.90
66728;DHT22;53641;44.274;19.890;2023-04-15T22:09:04;12.50;99.90
66728;DHT22;53641;44.274;19.890;2023-04-15T22:11:30;12.40;99.90
66728;DHT22;53641;44.274;19.890;2023-04-15T22:13:57;12.40;99.90
66728;DHT22;53641;44.274;19.890;2023-04-15T22:16:26;12.40;99.90
66728;DHT22;53641;44.274;19.890;2023-04-15T22:18:52;12.40;99.90
66728;DHT22;53641;44.274;19.890;2023-04-15T22:21:17;12.30;99.90
66728;DHT22;53641;44.274;19.890;2023-04-15T22:23:47;12.20;99.90
66728;DHT22;53641;44.274;19.890;2023-04-15T22:26:13;12.20;99.90
66728;DHT22;53641;44.274;19.890;2023-04-15T22:28:38;12.20;99.90
66728;DHT22;53641;44.274;19.890;2023-04-15T22:31:04;12.10;99.90
66728;DHT22;53641;44.274;19.890;2023-04-15T22:33:30;12.10;99.90
66728;DHT22;53641;44.274;19.890;2023-04-15T22:35:56;12.10;99.90
66728;DHT22;53641;44.274;19.890;2023-04-15T22:38:21;12.00;99.90
66728;DHT22;53641;44.274;19.890;2023-04-15T22:40:47;11.80;99.90
66728;DHT22;53641;44.274;19.890;2023-04-15T22:43:13;11.90;99.90
66728;DHT22;53641;44.274;19.890;2023-04-15T22:45:38;11.80;99.90
66728;DHT22;53641;44.274;19.890;2023-04-15T22:48:04;11.80;99.90
66728;DHT22;53641;44.274;19.890;2023-04-15T22:50:30;11.80;99.90
66728;DHT22;53641;44.274;19.890;2023-04-15T22:52:55;11.80;99.90
66728;DHT22;53641;44.274;19.890;2023-04-15T22:55:21;11.70;99.90
66728;DHT22;53641;44.274;19.890;2023-04-15T22:57:47;11.80;99.90
66728;DHT22;53641;44.274;19.890;2023-04-15T23:00:13;11.60;99.90
66728;DHT22;53641;44.274;19.890;2023-04-15T23:02:38;11.60;99.90
66728;DHT22;53641;44.274;19.890;2023-04-15T23:05:05;11.70;99.90
66728;DHT22;53641;44.274;19.890;2023-04-15T23:07:30;11.70;99.90
66728;DHT22;53641;44.274;19.890;2023-04-15T23:09:56;11.60;99.90
66728;DHT22;53641;44.274;19.890;2023-04-15T23:12:22;11.60;99.90
66728;DHT22;53641;44.274;19.890;2023-04-15T23:14:47;11.70;99.90
66728;DHT22;53641;44.274;19.890;2023-04-15T23:17:13;11.70;99.90
66728;DHT22;53641;44.274;19.890;2023-04-15T23:19:39;11.50;99.90
66728;DHT22;53641;44.274;19.890;2023-04-15T23:22:04;11.60;99.90
66728;DHT22;53641;44.274;19.890;2023-04-15T23:24:31;11.60;99.90
66728;DHT22;53641;44.274;19.890;2023-04-15T23:26:56;11.50;99.90
66728;DHT22;53641;44.274;19.890;2023-04-15T23:29:22;11.50;99.90
66728;DHT22;53641;44.274;19.890;2023-04-15T23:31:48;11.50;99.90
66728;DHT22;53641;44.274;19.890;2023-04-15T23:34:13;11.50;99.90
66728;DHT22;53641;44.274;19.890;2023-04-15T23:36:42;11.40;99.90
66728;DHT22;53641;44.274;19.890;2023-04-15T23:39:07;11.40;99.90